Explorer Of The Seas — C6SE4 — position and weather

sailwx.info

Track history (hours):
 
Tides and Currents Weather Stations Pressure Air Temp Water Temp Dewpoint Dewpoint Depression Visibility Wind Speed Wind Dir Waves Ship Positions

Explorer Of The Seas

Operator: Royal Caribbean Cruises Ltd

Last reported at 2017-Jul-22 12:00 UTC. Time now 2017-Jul-22 12:38 UTC.
Position N 49°36' W 127°36'.

Length 311 m; draft 9.2 m.

Type: Passenger vessel. MMSI: 311316000.

Wind from 220 at 15 knots

Barometer 1018.6 mb
Air temperature 13.0 ° C
Visibility: greater than 10.8 NM
Dewpoint 9.1 ° C

Date/timePositionNaut miles runAvg speedWind from/ knotsBaromVisibWave heightAir tempDewpointWater temp
2017-Jul-22 12:00N 49°36' W 127°36'2817.5 220 / 151018.610.8 13.0 9.1
2017-Jul-22 10:23N 49°19' W 127°01'920.0
2017-Jul-22 09:57N 49°14' W 126°51'920.5
2017-Jul-22 09:30N 49°08' W 126°40'2621.1
2017-Jul-22 08:17N 48°53' W 126°08'621.8
2017-Jul-22 08:00N 48°49' W 126°01'1021.1
2017-Jul-22 07:30N 48°44' W 125°47'1121.2
2017-Jul-22 06:59N 48°38' W 125°33'1421.2
2017-Jul-22 06:20N 48°31' W 125°14'821.3
2017-Jul-22 05:58N 48°31' W 125°03'1021.0
2017-Jul-22 05:31N 48°31' W 124°48'1121.5
2017-Jul-22 05:01N 48°28' W 124°33'1121.6
2017-Jul-22 04:31N 48°24' W 124°18'1122.0
2017-Jul-22 04:00N 48°19' W 124°02'1221.9
2017-Jul-22 03:28N 48°16' W 123°46'1122.8
2017-Jul-22 03:00N 48°14' W 123°30'714.9
2017-Jul-22 02:30N 48°09' W 123°22'1020.0
2017-Jul-22 02:00N 48°12' W 123°08'1121.2
2017-Jul-22 01:28N 48°12' W 122°51'1219.3
2017-Jul-22 00:52N 48°04' W 122°38'820.5
2017-Jul-22 00:30N 47°57' W 122°33'919.0
2017-Jul-22 00:00N 47°49' W 122°27'1020.3
2017-Jul-21 23:30N 47°39' W 122°27'3 6.4
2017-Jul-21 23:00N 47°38' W 122°23'0 0.0
2017-Jul-21 22:30N 47°38' W 122°23'0 0.0
2017-Jul-21 22:00N 47°38' W 122°23'0 0.0
2017-Jul-21 21:30N 47°38' W 122°23'0 0.0
2017-Jul-21 21:00N 47°38' W 122°23'0 0.0
2017-Jul-21 20:30N 47°38' W 122°23'0 0.0
2017-Jul-21 20:00N 47°38' W 122°23'0 0.0
2017-Jul-21 19:30N 47°38' W 122°23'0 0.0
2017-Jul-21 19:00N 47°38' W 122°23'0 0.0
2017-Jul-21 18:30N 47°38' W 122°23'0 0.0
2017-Jul-21 18:00N 47°38' W 122°23'0 0.0
2017-Jul-21 17:30N 47°38' W 122°23'0 0.0
2017-Jul-21 16:57N 47°38' W 122°23'0 0.0
2017-Jul-21 16:30N 47°38' W 122°23'0 0.0
2017-Jul-21 16:00N 47°38' W 122°23'0 0.0
2017-Jul-21 15:30N 47°38' W 122°23'0 0.0
2017-Jul-21 15:00N 47°38' W 122°23'0 0.0
2017-Jul-21 14:30N 47°38' W 122°23'0 0.0
2017-Jul-21 14:00N 47°38' W 122°23'0 0.0
2017-Jul-21 13:30N 47°38' W 122°23'0 0.0
2017-Jul-21 13:00N 47°38' W 122°23'0 0.0
2017-Jul-21 12:30N 47°38' W 122°23'2 3.2
2017-Jul-21 12:00N 47°37' W 122°25'611.1
2017-Jul-21 11:30N 47°43' W 122°28'612.2
2017-Jul-21 11:00N 47°49' W 122°28'612.6
2017-Jul-21 10:30N 47°55' W 122°30'812.2
2017-Jul-21 09:53N 48°01' W 122°38'712.9
2017-Jul-21 09:22N 48°07' W 122°41'615.6
2017-Jul-21 09:00N 48°10' W 122°48'816.0
2017-Jul-21 08:30N 48°12' W 122°60'715.3
2017-Jul-21 08:00N 48°12' W 123°11'815.8
2017-Jul-21 07:30N 48°10' W 123°23'510.1
2017-Jul-21 07:00N 48°12' W 123°29'4 8.2
2017-Jul-21 06:30N 48°13' W 123°35'4 8.1
2017-Jul-21 06:00N 48°13' W 123°41'4 7.5
2017-Jul-21 05:28N 48°13' W 123°47'3 7.5
2017-Jul-21 05:00N 48°13' W 123°53'3 6.5
2017-Jul-21 04:30N 48°16' W 123°55'4 6.7
2017-Jul-21 03:58N 48°17' W 123°49'3 7.0
2017-Jul-21 03:30N 48°16' W 123°45'4 7.4
2017-Jul-21 03:00N 48°16' W 123°39'4 8.4
2017-Jul-21 02:27N 48°15' W 123°32'4 7.4
2017-Jul-21 01:59N 48°18' W 123°28'4 7.8
2017-Jul-21 01:30N 48°21' W 123°25'4 8.2
2017-Jul-21 01:00N 48°25' W 123°24'0 0.1
2017-Jul-20 23:23N 48°25' W 123°24'0 0.0
2017-Jul-20 23:00N 48°25' W 123°24'0 0.0
2017-Jul-20 22:30N 48°25' W 123°24'0 0.0
2017-Jul-20 22:00N 48°25' W 123°24'0 0.0
2017-Jul-20 21:30N 48°25' W 123°24'0 0.0
2017-Jul-20 21:00N 48°25' W 123°24'0 0.0
2017-Jul-20 20:30N 48°25' W 123°24'0 0.0
2017-Jul-20 20:00N 48°25' W 123°24'0 0.0
2017-Jul-20 19:30N 48°25' W 123°24'0 0.0
2017-Jul-20 19:00N 48°25' W 123°24'0 0.0
2017-Jul-20 18:30N 48°25' W 123°24'0 0.0
2017-Jul-20 18:00N 48°25' W 123°24'0 0.0
2017-Jul-20 17:30N 48°25' W 123°24'0 0.0
2017-Jul-20 16:57N 48°25' W 123°24'0 0.0
2017-Jul-20 16:30N 48°25' W 123°24'0 0.0
2017-Jul-20 16:00N 48°25' W 123°24'0 0.0
2017-Jul-20 15:30N 48°25' W 123°24'1 2.9
2017-Jul-20 15:00N 48°24' W 123°24'1212.2
2017-Jul-20 14:00N 48°14' W 123°35'816.1
2017-Jul-20 13:30N 48°14' W 123°47'815.6
2017-Jul-20 13:00N 48°15' W 123°59'815.8
2017-Jul-20 12:31N 48°18' W 124°09'714.4
2017-Jul-20 12:00N 48°21' W 124°19'713.5
2017-Jul-20 11:30N 48°24' W 124°28'713.4
2017-Jul-20 10:57N 48°27' W 124°39'613.4
2017-Jul-20 10:30N 48°29' W 124°47'814.5
2017-Jul-20 09:59N 48°29' W 124°58'816.7
2017-Jul-20 09:30N 48°29' W 125°10'918.3
2017-Jul-20 09:00N 48°31' W 125°24'917.5
2017-Jul-20 08:30N 48°37' W 125°34'917.5
2017-Jul-20 08:00N 48°42' W 125°45'816.7
2017-Jul-20 07:30N 48°47' W 125°55'816.9
2017-Jul-20 07:00N 48°52' W 126°06'917.4
2017-Jul-20 06:30N 48°57' W 126°16'917.8
2017-Jul-20 06:00N 49°02' W 126°27'917.7
2017-Jul-20 05:30N 49°07' W 126°38'917.9
2017-Jul-20 05:00N 49°13' W 126°49'917.8
2017-Jul-20 04:30N 49°19' W 126°60'1818.0
2017-Jul-20 03:28N 49°30' W 127°22'918.5
2017-Jul-20 03:00N 49°36' W 127°32'918.7
2017-Jul-20 02:30N 49°42' W 127°43'918.4
2017-Jul-20 02:00N 49°47' W 127°55'918.2
2017-Jul-20 01:29N 49°53' W 128°06'38917.3
2017-Jul-19 03:00N 55°12' W 134°12'6020.1 310 / 181017.6 13.0 13.0
2017-Jul-19 00:00N 56°12' W 134°24'9115.2 260 / 121017.627.0 15.011.3
2017-Jul-18 18:00N 57°36' W 133°18'17 5.7 230 / 31018.410.8 10.010.0 5.0
2017-Jul-18 15:00N 57°30' W 132°48'118 4.4 120 / 101019.310.8 8.0 5.8 5.0
2017-Jul-17 12:00N 59°00' W 135°12'194 8.1 160 / 121022.510.8 10.010.0
2017-Jul-16 12:00N 55°48' W 134°24'7424.7 260 / 171018.010.8 12.010.1
2017-Jul-16 09:00N 54°36' W 133°54'12220.3 270 / 201018.827.0 13.011.1
2017-Jul-16 03:00N 52°42' W 132°42'19321.4 290 / 211019.2 13.0 13.0
2017-Jul-15 18:00N 50°24' W 129°06'10320.4 190 / 281017.3 13.0 13.0
2017-Jul-15 12:55N 49°19' W 127°01'920.5
2017-Jul-15 12:29N 49°14' W 126°51'1631.4
2017-Jul-15 12:00N 49°06' W 126°30'2 8.7 160 / 151019.910.8 13.013.0
2017-Jul-15 11:46N 49°04' W 126°32'1721.7
2017-Jul-15 10:58N 48°54' W 126°10'1221.9
2017-Jul-15 10:26N 48°47' W 125°56'921.9
2017-Jul-15 10:00N 48°42' W 125°44'1121.5
2017-Jul-15 09:29N 48°36' W 125°30'1222.0
2017-Jul-15 08:57N 48°32' W 125°13'1022.1
2017-Jul-15 08:31N 48°31' W 124°58'1122.4
2017-Jul-15 08:00N 48°30' W 124°42'1122.3
2017-Jul-15 07:31N 48°26' W 124°26'1121.9
2017-Jul-15 07:00N 48°22' W 124°11'1122.2
2017-Jul-15 06:30N 48°17' W 123°55'1122.6
2017-Jul-15 06:00N 48°16' W 123°39'1119.8
2017-Jul-15 05:28N 48°11' W 123°24'2 3.8
2017-Jul-15 05:00N 48°09' W 123°24'3 5.6
2017-Jul-15 04:30N 48°11' W 123°27'3 5.7
2017-Jul-15 04:00N 48°13' W 123°31'2 4.9
2017-Jul-15 03:30N 48°13' W 123°27'611.2
2017-Jul-15 03:00N 48°08' W 123°23'5 9.8
2017-Jul-15 02:29N 48°10' W 123°15'918.5
2017-Jul-15 02:00N 48°12' W 123°02'1118.9
2017-Jul-15 01:26N 48°11' W 122°47'716.8
2017-Jul-15 01:00N 48°06' W 122°39'918.5
2017-Jul-15 00:30N 47°57' W 122°33'1019.7
2017-Jul-15 00:00N 47°48' W 122°27'1019.4
2017-Jul-14 23:30N 47°39' W 122°27'3 5.6
2017-Jul-14 23:00N 47°38' W 122°23'0 0.0
2017-Jul-14 22:29N 47°38' W 122°23'0 0.0
2017-Jul-14 22:00N 47°38' W 122°23'0 0.0
2017-Jul-14 21:30N 47°38' W 122°23'0 0.0
2017-Jul-14 20:59N 47°38' W 122°23'0 0.0
2017-Jul-14 20:30N 47°38' W 122°23'0 0.0
2017-Jul-14 20:00N 47°38' W 122°23'0 0.0
2017-Jul-14 19:30N 47°38' W 122°23'0 0.0
2017-Jul-14 19:00N 47°38' W 122°23'0 0.0
2017-Jul-14 18:30N 47°38' W 122°23'0 0.0
2017-Jul-14 17:59N 47°38' W 122°23'0 0.0
2017-Jul-14 17:31N 47°38' W 122°23'0 0.0
2017-Jul-14 17:00N 47°38' W 122°23'0 0.0
2017-Jul-14 16:29N 47°38' W 122°23'0 0.0
2017-Jul-14 16:00N 47°38' W 122°23'0 0.0
2017-Jul-14 15:29N 47°38' W 122°23'0 0.0
2017-Jul-14 15:00N 47°38' W 122°23'0 0.0
2017-Jul-14 14:30N 47°38' W 122°23'0 0.0
2017-Jul-14 13:59N 47°38' W 122°23'0 0.0
2017-Jul-14 13:29N 47°38' W 122°23'0 0.0
2017-Jul-14 13:00N 47°38' W 122°23'0 0.0
2017-Jul-14 12:30N 47°38' W 122°23'1 2.9
2017-Jul-14 12:01N 47°37' W 122°25'611.3
2017-Jul-14 11:30N 47°43' W 122°28'613.0
2017-Jul-14 11:01N 47°49' W 122°28'713.8
2017-Jul-14 10:30N 47°56' W 122°31'714.6
2017-Jul-14 10:00N 48°01' W 122°38'814.0
2017-Jul-14 09:28N 48°08' W 122°43'614.1
2017-Jul-14 09:00N 48°11' W 122°51'815.1
2017-Jul-14 08:30N 48°12' W 123°03'714.7
2017-Jul-14 08:00N 48°11' W 123°14'612.6
2017-Jul-14 07:30N 48°09' W 123°23'5 9.3
2017-Jul-14 07:00N 48°12' W 123°29'4 7.6
2017-Jul-14 06:30N 48°13' W 123°34'4 7.4
2017-Jul-14 06:00N 48°13' W 123°40'4 7.4
2017-Jul-14 05:30N 48°13' W 123°45'4 7.4
2017-Jul-14 05:00N 48°13' W 123°51'3 6.8
2017-Jul-14 04:30N 48°15' W 123°55'4 7.0
2017-Jul-14 03:58N 48°17' W 123°50'4 8.3
2017-Jul-14 03:30N 48°16' W 123°44'4 8.4
2017-Jul-14 03:00N 48°16' W 123°38'4 8.1
2017-Jul-14 02:30N 48°15' W 123°32'4 7.4
2017-Jul-14 02:00N 48°18' W 123°28'4 8.0
2017-Jul-14 01:30N 48°22' W 123°25'3 6.8
2017-Jul-14 01:00N 48°25' W 123°24'0 0.1
2017-Jul-13 23:24N 48°25' W 123°24'0 0.0
2017-Jul-13 23:00N 48°25' W 123°24'0 0.0
2017-Jul-13 22:30N 48°25' W 123°24'0 0.0
2017-Jul-13 22:00N 48°25' W 123°24'0 0.0
2017-Jul-13 21:30N 48°25' W 123°24'0 0.0
2017-Jul-13 21:00N 48°25' W 123°24'0 0.0
2017-Jul-13 20:30N 48°25' W 123°24'0 0.0
2017-Jul-13 20:00N 48°25' W 123°24'0 0.0
2017-Jul-13 19:30N 48°25' W 123°24'0 0.0
2017-Jul-13 18:58N 48°25' W 123°24'0 0.0
2017-Jul-13 18:28N 48°25' W 123°24'0 0.0
2017-Jul-13 17:58N 48°25' W 123°24'0 0.0
2017-Jul-13 17:28N 48°25' W 123°24'0 0.0
2017-Jul-13 16:58N 48°25' W 123°24'0 0.0
2017-Jul-13 16:28N 48°25' W 123°24'0 0.0
2017-Jul-13 15:58N 48°25' W 123°24'0 0.0
2017-Jul-13 15:28N 48°25' W 123°24'2 3.7
2017-Jul-13 15:00N 48°23' W 123°24'510.3
2017-Jul-13 14:30N 48°18' W 123°25'815.9
2017-Jul-13 14:00N 48°13' W 123°35'917.1
2017-Jul-13 13:30N 48°13' W 123°48'816.9
2017-Jul-13 13:00N 48°15' W 123°60'917.9
2017-Jul-13 12:30N 48°19' W 124°12'917.5
2017-Jul-13 11:59N 48°23' W 124°24'817.5
2017-Jul-13 11:30N 48°26' W 124°36'917.1
2017-Jul-13 11:00N 48°29' W 124°48'918.1
2017-Jul-13 10:29N 48°29' W 125°02'817.7
2017-Jul-13 10:00N 48°29' W 125°15'917.0
2017-Jul-13 09:30N 48°33' W 125°26'917.4
2017-Jul-13 09:00N 48°37' W 125°38'917.5
2017-Jul-13 08:30N 48°43' W 125°48'917.8
2017-Jul-13 08:00N 48°48' W 125°59'918.3
2017-Jul-13 07:30N 48°54' W 126°10'1118.0
2017-Jul-13 06:54N 49°00' W 126°23'718.1
2017-Jul-13 06:30N 49°04' W 126°32'918.5
2017-Jul-13 06:00N 49°10' W 126°43'918.6
2017-Jul-13 05:30N 49°16' W 126°54'918.7
2017-Jul-13 05:00N 49°22' W 127°06'3417.0
2017-Jul-13 03:00N 49°42' W 127°48'27118.1 1016.5 14.0 14.0
2017-Jul-12 12:00N 52°54' W 132°54'   180 / 121011.627.0 10.0 5.711.0
Track history (hours):
 
Tides and Currents Weather Stations Pressure Air Temp Water Temp Dewpoint Dewpoint Depression Visibility Wind Speed Wind Dir Waves Ship Positions

Explorer Of The Seas

Operator: Royal Caribbean Cruises Ltd

Last reported at 2017-Jul-22 12:00 UTC. Time now 2017-Jul-22 12:38 UTC.
Position N 49°36' W 127°36'.

Length 311 m; draft 9.2 m.

Type: Passenger vessel. MMSI: 311316000.

Wind from 220 at 15 knots

Barometer 1018.6 mb
Air temperature 13.0 ° C
Visibility: greater than 10.8 NM
Dewpoint 9.1 ° C

Date/timePositionNaut miles runAvg speedWind from/ knotsBaromVisibWave heightAir tempDewpointWater temp
2017-Jul-22 12:00N 49°36' W 127°36'2817.5 220 / 151018.610.8 13.0 9.1
2017-Jul-22 10:23N 49°19' W 127°01'920.0
2017-Jul-22 09:57N 49°14' W 126°51'920.5
2017-Jul-22 09:30N 49°08' W 126°40'2621.1
2017-Jul-22 08:17N 48°53' W 126°08'621.8
2017-Jul-22 08:00N 48°49' W 126°01'1021.1
2017-Jul-22 07:30N 48°44' W 125°47'1121.2
2017-Jul-22 06:59N 48°38' W 125°33'1421.2
2017-Jul-22 06:20N 48°31' W 125°14'821.3
2017-Jul-22 05:58N 48°31' W 125°03'1021.0
2017-Jul-22 05:31N 48°31' W 124°48'1121.5
2017-Jul-22 05:01N 48°28' W 124°33'1121.6
2017-Jul-22 04:31N 48°24' W 124°18'1122.0
2017-Jul-22 04:00N 48°19' W 124°02'1221.9
2017-Jul-22 03:28N 48°16' W 123°46'1122.8
2017-Jul-22 03:00N 48°14' W 123°30'714.9
2017-Jul-22 02:30N 48°09' W 123°22'1020.0
2017-Jul-22 02:00N 48°12' W 123°08'1121.2
2017-Jul-22 01:28N 48°12' W 122°51'1219.3
2017-Jul-22 00:52N 48°04' W 122°38'820.5
2017-Jul-22 00:30N 47°57' W 122°33'919.0
2017-Jul-22 00:00N 47°49' W 122°27'1020.3
2017-Jul-21 23:30N 47°39' W 122°27'3 6.4
2017-Jul-21 23:00N 47°38' W 122°23'0 0.0
2017-Jul-21 22:30N 47°38' W 122°23'0 0.0
2017-Jul-21 22:00N 47°38' W 122°23'0 0.0
2017-Jul-21 21:30N 47°38' W 122°23'0 0.0
2017-Jul-21 21:00N 47°38' W 122°23'0 0.0
2017-Jul-21 20:30N 47°38' W 122°23'0 0.0
2017-Jul-21 20:00N 47°38' W 122°23'0 0.0
2017-Jul-21 19:30N 47°38' W 122°23'0 0.0
2017-Jul-21 19:00N 47°38' W 122°23'0 0.0
2017-Jul-21 18:30N 47°38' W 122°23'0 0.0
2017-Jul-21 18:00N 47°38' W 122°23'0 0.0
2017-Jul-21 17:30N 47°38' W 122°23'0 0.0
2017-Jul-21 16:57N 47°38' W 122°23'0 0.0
2017-Jul-21 16:30N 47°38' W 122°23'0 0.0
2017-Jul-21 16:00N 47°38' W 122°23'0 0.0
2017-Jul-21 15:30N 47°38' W 122°23'0 0.0
2017-Jul-21 15:00N 47°38' W 122°23'0 0.0
2017-Jul-21 14:30N 47°38' W 122°23'0 0.0
2017-Jul-21 14:00N 47°38' W 122°23'0 0.0
2017-Jul-21 13:30N 47°38' W 122°23'0 0.0
2017-Jul-21 13:00N 47°38' W 122°23'0 0.0
2017-Jul-21 12:30N 47°38' W 122°23'2 3.2
2017-Jul-21 12:00N 47°37' W 122°25'611.1
2017-Jul-21 11:30N 47°43' W 122°28'612.2
2017-Jul-21 11:00N 47°49' W 122°28'612.6
2017-Jul-21 10:30N 47°55' W 122°30'812.2
2017-Jul-21 09:53N 48°01' W 122°38'712.9
2017-Jul-21 09:22N 48°07' W 122°41'615.6
2017-Jul-21 09:00N 48°10' W 122°48'816.0
2017-Jul-21 08:30N 48°12' W 122°60'715.3
2017-Jul-21 08:00N 48°12' W 123°11'815.8
2017-Jul-21 07:30N 48°10' W 123°23'510.1
2017-Jul-21 07:00N 48°12' W 123°29'4 8.2
2017-Jul-21 06:30N 48°13' W 123°35'4 8.1
2017-Jul-21 06:00N 48°13' W 123°41'4 7.5
2017-Jul-21 05:28N 48°13' W 123°47'3 7.5
2017-Jul-21 05:00N 48°13' W 123°53'3 6.5
2017-Jul-21 04:30N 48°16' W 123°55'4 6.7
2017-Jul-21 03:58N 48°17' W 123°49'3 7.0
2017-Jul-21 03:30N 48°16' W 123°45'4 7.4
2017-Jul-21 03:00N 48°16' W 123°39'4 8.4
2017-Jul-21 02:27N 48°15' W 123°32'4 7.4
2017-Jul-21 01:59N 48°18' W 123°28'4 7.8
2017-Jul-21 01:30N 48°21' W 123°25'4 8.2
2017-Jul-21 01:00N 48°25' W 123°24'0 0.1
2017-Jul-20 23:23N 48°25' W 123°24'0 0.0
2017-Jul-20 23:00N 48°25' W 123°24'0 0.0
2017-Jul-20 22:30N 48°25' W 123°24'0 0.0
2017-Jul-20 22:00N 48°25' W 123°24'0 0.0
2017-Jul-20 21:30N 48°25' W 123°24'0 0.0
2017-Jul-20 21:00N 48°25' W 123°24'0 0.0
2017-Jul-20 20:30N 48°25' W 123°24'0 0.0
2017-Jul-20 20:00N 48°25' W 123°24'0 0.0
2017-Jul-20 19:30N 48°25' W 123°24'0 0.0
2017-Jul-20 19:00N 48°25' W 123°24'0 0.0
2017-Jul-20 18:30N 48°25' W 123°24'0 0.0
2017-Jul-20 18:00N 48°25' W 123°24'0 0.0
2017-Jul-20 17:30N 48°25' W 123°24'0 0.0
2017-Jul-20 16:57N 48°25' W 123°24'0 0.0
2017-Jul-20 16:30N 48°25' W 123°24'0 0.0
2017-Jul-20 16:00N 48°25' W 123°24'0 0.0
2017-Jul-20 15:30N 48°25' W 123°24'1 2.9
2017-Jul-20 15:00N 48°24' W 123°24'1212.2
2017-Jul-20 14:00N 48°14' W 123°35'816.1
2017-Jul-20 13:30N 48°14' W 123°47'815.6
2017-Jul-20 13:00N 48°15' W 123°59'815.8
2017-Jul-20 12:31N 48°18' W 124°09'714.4
2017-Jul-20 12:00N 48°21' W 124°19'713.5
2017-Jul-20 11:30N 48°24' W 124°28'713.4
2017-Jul-20 10:57N 48°27' W 124°39'613.4
2017-Jul-20 10:30N 48°29' W 124°47'814.5
2017-Jul-20 09:59N 48°29' W 124°58'816.7
2017-Jul-20 09:30N 48°29' W 125°10'918.3
2017-Jul-20 09:00N 48°31' W 125°24'917.5
2017-Jul-20 08:30N 48°37' W 125°34'917.5
2017-Jul-20 08:00N 48°42' W 125°45'816.7
2017-Jul-20 07:30N 48°47' W 125°55'816.9
2017-Jul-20 07:00N 48°52' W 126°06'917.4
2017-Jul-20 06:30N 48°57' W 126°16'917.8
2017-Jul-20 06:00N 49°02' W 126°27'917.7
2017-Jul-20 05:30N 49°07' W 126°38'917.9
2017-Jul-20 05:00N 49°13' W 126°49'917.8
2017-Jul-20 04:30N 49°19' W 126°60'1818.0
2017-Jul-20 03:28N 49°30' W 127°22'918.5
2017-Jul-20 03:00N 49°36' W 127°32'918.7
2017-Jul-20 02:30N 49°42' W 127°43'918.4
2017-Jul-20 02:00N 49°47' W 127°55'918.2
2017-Jul-20 01:29N 49°53' W 128°06'38917.3
2017-Jul-19 03:00N 55°12' W 134°12'6020.1 310 / 181017.6 13.0 13.0
2017-Jul-19 00:00N 56°12' W 134°24'9115.2 260 / 121017.627.0 15.011.3
2017-Jul-18 18:00N 57°36' W 133°18'17 5.7 230 / 31018.410.8 10.010.0 5.0
2017-Jul-18 15:00N 57°30' W 132°48'118 4.4 120 / 101019.310.8 8.0 5.8 5.0
2017-Jul-17 12:00N 59°00' W 135°12'194 8.1 160 / 121022.510.8 10.010.0
2017-Jul-16 12:00N 55°48' W 134°24'7424.7 260 / 171018.010.8 12.010.1
2017-Jul-16 09:00N 54°36' W 133°54'12220.3 270 / 201018.827.0 13.011.1
2017-Jul-16 03:00N 52°42' W 132°42'19321.4 290 / 211019.2 13.0 13.0
2017-Jul-15 18:00N 50°24' W 129°06'10320.4 190 / 281017.3 13.0 13.0
2017-Jul-15 12:55N 49°19' W 127°01'920.5
2017-Jul-15 12:29N 49°14' W 126°51'1631.4
2017-Jul-15 12:00N 49°06' W 126°30'2 8.7 160 / 151019.910.8 13.013.0
2017-Jul-15 11:46N 49°04' W 126°32'1721.7
2017-Jul-15 10:58N 48°54' W 126°10'1221.9
2017-Jul-15 10:26N 48°47' W 125°56'921.9
2017-Jul-15 10:00N 48°42' W 125°44'1121.5
2017-Jul-15 09:29N 48°36' W 125°30'1222.0
2017-Jul-15 08:57N 48°32' W 125°13'1022.1
2017-Jul-15 08:31N 48°31' W 124°58'1122.4
2017-Jul-15 08:00N 48°30' W 124°42'1122.3
2017-Jul-15 07:31N 48°26' W 124°26'1121.9
2017-Jul-15 07:00N 48°22' W 124°11'1122.2
2017-Jul-15 06:30N 48°17' W 123°55'1122.6
2017-Jul-15 06:00N 48°16' W 123°39'1119.8
2017-Jul-15 05:28N 48°11' W 123°24'2 3.8
2017-Jul-15 05:00N 48°09' W 123°24'3 5.6
2017-Jul-15 04:30N 48°11' W 123°27'3 5.7
2017-Jul-15 04:00N 48°13' W 123°31'2 4.9
2017-Jul-15 03:30N 48°13' W 123°27'611.2
2017-Jul-15 03:00N 48°08' W 123°23'5 9.8
2017-Jul-15 02:29N 48°10' W 123°15'918.5
2017-Jul-15 02:00N 48°12' W 123°02'1118.9
2017-Jul-15 01:26N 48°11' W 122°47'716.8
2017-Jul-15 01:00N 48°06' W 122°39'918.5
2017-Jul-15 00:30N 47°57' W 122°33'1019.7
2017-Jul-15 00:00N 47°48' W 122°27'1019.4
2017-Jul-14 23:30N 47°39' W 122°27'3 5.6
2017-Jul-14 23:00N 47°38' W 122°23'0 0.0
2017-Jul-14 22:29N 47°38' W 122°23'0 0.0
2017-Jul-14 22:00N 47°38' W 122°23'0 0.0
2017-Jul-14 21:30N 47°38' W 122°23'0 0.0
2017-Jul-14 20:59N 47°38' W 122°23'0 0.0
2017-Jul-14 20:30N 47°38' W 122°23'0 0.0
2017-Jul-14 20:00N 47°38' W 122°23'0 0.0
2017-Jul-14 19:30N 47°38' W 122°23'0 0.0
2017-Jul-14 19:00N 47°38' W 122°23'0 0.0
2017-Jul-14 18:30N 47°38' W 122°23'0 0.0
2017-Jul-14 17:59N 47°38' W 122°23'0 0.0
2017-Jul-14 17:31N 47°38' W 122°23'0 0.0
2017-Jul-14 17:00N 47°38' W 122°23'0 0.0
2017-Jul-14 16:29N 47°38' W 122°23'0 0.0
2017-Jul-14 16:00N 47°38' W 122°23'0 0.0
2017-Jul-14 15:29N 47°38' W 122°23'0 0.0
2017-Jul-14 15:00N 47°38' W 122°23'0 0.0
2017-Jul-14 14:30N 47°38' W 122°23'0 0.0
2017-Jul-14 13:59N 47°38' W 122°23'0 0.0
2017-Jul-14 13:29N 47°38' W 122°23'0 0.0
2017-Jul-14 13:00N 47°38' W 122°23'0 0.0
2017-Jul-14 12:30N 47°38' W 122°23'1 2.9
2017-Jul-14 12:01N 47°37' W 122°25'611.3
2017-Jul-14 11:30N 47°43' W 122°28'613.0
2017-Jul-14 11:01N 47°49' W 122°28'713.8
2017-Jul-14 10:30N 47°56' W 122°31'714.6
2017-Jul-14 10:00N 48°01' W 122°38'814.0
2017-Jul-14 09:28N 48°08' W 122°43'614.1
2017-Jul-14 09:00N 48°11' W 122°51'815.1
2017-Jul-14 08:30N 48°12' W 123°03'714.7
2017-Jul-14 08:00N 48°11' W 123°14'612.6
2017-Jul-14 07:30N 48°09' W 123°23'5 9.3
2017-Jul-14 07:00N 48°12' W 123°29'4 7.6
2017-Jul-14 06:30N 48°13' W 123°34'4 7.4
2017-Jul-14 06:00N 48°13' W 123°40'4 7.4
2017-Jul-14 05:30N 48°13' W 123°45'4 7.4
2017-Jul-14 05:00N 48°13' W 123°51'3 6.8
2017-Jul-14 04:30N 48°15' W 123°55'4 7.0
2017-Jul-14 03:58N 48°17' W 123°50'4 8.3
2017-Jul-14 03:30N 48°16' W 123°44'4 8.4
2017-Jul-14 03:00N 48°16' W 123°38'4 8.1
2017-Jul-14 02:30N 48°15' W 123°32'4 7.4
2017-Jul-14 02:00N 48°18' W 123°28'4 8.0
2017-Jul-14 01:30N 48°22' W 123°25'3 6.8
2017-Jul-14 01:00N 48°25' W 123°24'0 0.1
2017-Jul-13 23:24N 48°25' W 123°24'0 0.0
2017-Jul-13 23:00N 48°25' W 123°24'0 0.0
2017-Jul-13 22:30N 48°25' W 123°24'0 0.0
2017-Jul-13 22:00N 48°25' W 123°24'0 0.0
2017-Jul-13 21:30N 48°25' W 123°24'0 0.0
2017-Jul-13 21:00N 48°25' W 123°24'0 0.0
2017-Jul-13 20:30N 48°25' W 123°24'0 0.0
2017-Jul-13 20:00N 48°25' W 123°24'0 0.0
2017-Jul-13 19:30N 48°25' W 123°24'0 0.0
2017-Jul-13 18:58N 48°25' W 123°24'0 0.0
2017-Jul-13 18:28N 48°25' W 123°24'0 0.0
2017-Jul-13 17:58N 48°25' W 123°24'0 0.0
2017-Jul-13 17:28N 48°25' W 123°24'0 0.0
2017-Jul-13 16:58N 48°25' W 123°24'0 0.0
2017-Jul-13 16:28N 48°25' W 123°24'0 0.0
2017-Jul-13 15:58N 48°25' W 123°24'0 0.0
2017-Jul-13 15:28N 48°25' W 123°24'2 3.7
2017-Jul-13 15:00N 48°23' W 123°24'510.3
2017-Jul-13 14:30N 48°18' W 123°25'815.9
2017-Jul-13 14:00N 48°13' W 123°35'917.1
2017-Jul-13 13:30N 48°13' W 123°48'816.9
2017-Jul-13 13:00N 48°15' W 123°60'917.9
2017-Jul-13 12:30N 48°19' W 124°12'917.5
2017-Jul-13 11:59N 48°23' W 124°24'817.5
2017-Jul-13 11:30N 48°26' W 124°36'917.1
2017-Jul-13 11:00N 48°29' W 124°48'918.1
2017-Jul-13 10:29N 48°29' W 125°02'817.7
2017-Jul-13 10:00N 48°29' W 125°15'917.0
2017-Jul-13 09:30N 48°33' W 125°26'917.4
2017-Jul-13 09:00N 48°37' W 125°38'917.5
2017-Jul-13 08:30N 48°43' W 125°48'917.8
2017-Jul-13 08:00N 48°48' W 125°59'918.3
2017-Jul-13 07:30N 48°54' W 126°10'1118.0
2017-Jul-13 06:54N 49°00' W 126°23'718.1
2017-Jul-13 06:30N 49°04' W 126°32'918.5
2017-Jul-13 06:00N 49°10' W 126°43'918.6
2017-Jul-13 05:30N 49°16' W 126°54'918.7
2017-Jul-13 05:00N 49°22' W 127°06'3417.0
2017-Jul-13 03:00N 49°42' W 127°48'27118.1 1016.5 14.0 14.0
2017-Jul-12 12:00N 52°54' W 132°54'   180 / 121011.627.0 10.0 5.711.0

Dump ship's entire track history